createdAt,value
2018-07-17T00:00:41.962Z,940.43
2018-07-17T00:01:50.080Z,940.45
2018-07-17T00:02:58.137Z,940.45
2018-07-17T00:04:06.151Z,940.45
2018-07-17T00:05:14.223Z,940.48
2018-07-17T00:06:22.288Z,940.51
2018-07-17T00:07:30.367Z,940.48
2018-07-17T00:08:38.406Z,940.47
2018-07-17T00:09:46.521Z,940.44
2018-07-17T00:10:54.646Z,940.48
2018-07-17T00:12:02.715Z,940.43
2018-07-17T00:13:10.671Z,940.42
2018-07-17T00:14:18.721Z,940.40
2018-07-17T00:15:26.812Z,940.37
2018-07-17T00:16:34.966Z,940.38
2018-07-17T00:17:42.948Z,940.41
2018-07-17T00:18:51.009Z,940.41
2018-07-17T00:19:59.049Z,940.38
2018-07-17T00:21:07.151Z,940.40
2018-07-17T00:22:15.265Z,940.43
2018-07-17T00:23:23.264Z,940.39
2018-07-17T00:24:31.332Z,940.37
2018-07-17T00:25:39.381Z,940.36
2018-07-17T00:26:47.564Z,940.38
2018-07-17T00:27:55.534Z,940.36
2018-07-17T00:29:03.599Z,940.38
2018-07-17T00:30:11.669Z,940.39
2018-07-17T00:31:19.736Z,940.38
2018-07-17T00:32:27.835Z,940.35
2018-07-17T00:33:35.860Z,940.38
2018-07-17T00:34:43.914Z,940.37
2018-07-17T00:35:52.009Z,940.41
2018-07-17T00:37:00.141Z,940.42
2018-07-17T00:38:08.111Z,940.42
2018-07-17T00:39:16.168Z,940.37
2018-07-17T00:40:24.243Z,940.44
2018-07-17T00:41:32.303Z,940.45
2018-07-17T00:42:40.470Z,940.43
2018-07-17T00:43:48.445Z,940.38
2018-07-17T00:44:56.504Z,940.42
2018-07-17T00:46:04.568Z,940.41
2018-07-17T00:47:12.738Z,940.47
2018-07-17T00:48:20.698Z,940.49
2018-07-17T00:49:28.731Z,940.49
2018-07-17T00:50:36.825Z,940.52
2018-07-17T00:51:44.893Z,940.49
2018-07-17T00:52:53.052Z,940.53
2018-07-17T00:54:01.020Z,940.53
2018-07-17T00:55:09.068Z,940.49
2018-07-17T00:56:17.145Z,940.53
2018-07-17T00:57:25.215Z,940.53
2018-07-17T00:58:34.885Z,940.52
2018-07-17T00:59:42.938Z,940.54
2018-07-17T01:00:51.020Z,940.52
2018-07-17T01:01:59.054Z,940.52
2018-07-17T01:03:07.246Z,940.53
2018-07-17T01:04:15.200Z,940.53
2018-07-17T01:05:23.264Z,940.52
2018-07-17T01:06:31.335Z,940.54
2018-07-17T01:07:39.421Z,940.55
2018-07-17T01:08:47.453Z,940.53
2018-07-17T01:09:55.523Z,940.51
2018-07-17T01:11:03.582Z,940.49
2018-07-17T01:12:11.649Z,940.48
2018-07-17T01:13:19.803Z,940.47
2018-07-17T01:14:27.790Z,940.45
2018-07-17T01:15:35.855Z,940.47
2018-07-17T01:16:43.921Z,940.46
2018-07-17T01:17:51.981Z,940.46
2018-07-17T01:19:00.145Z,940.45
2018-07-17T01:20:08.102Z,940.44
2018-07-17T01:21:16.172Z,940.44
2018-07-17T01:22:24.227Z,940.43
2018-07-17T01:24:44.089Z,940.38
2018-07-17T01:25:53.493Z,940.42
2018-07-17T01:27:01.544Z,940.41
2018-07-17T01:28:09.640Z,940.43
2018-07-17T01:29:17.671Z,940.43
2018-07-17T01:30:25.767Z,940.40
2018-07-17T01:31:33.799Z,940.40
2018-07-17T01:32:41.847Z,940.41
2018-07-17T01:33:49.930Z,940.37
2018-07-17T01:34:58.048Z,940.34
2018-07-17T01:36:06.051Z,940.37
2018-07-17T01:37:14.121Z,940.35
2018-07-17T01:38:22.210Z,940.34
2018-07-17T01:39:30.241Z,940.34
2018-07-17T01:40:38.398Z,940.33
2018-07-17T01:41:46.371Z,940.34
2018-07-17T01:42:54.540Z,940.34
2018-07-17T01:44:02.506Z,940.35
2018-07-17T01:45:10.570Z,940.38
2018-07-17T01:46:18.675Z,940.38
2018-07-17T01:47:26.704Z,940.36
2018-07-17T01:48:34.773Z,940.38
2018-07-17T01:49:42.835Z,940.39
2018-07-17T01:50:50.900Z,940.36
2018-07-17T01:51:59.050Z,940.33
2018-07-17T01:53:07.029Z,940.33
2018-07-17T01:54:15.088Z,940.32
2018-07-17T01:55:23.163Z,940.34
2018-07-17T01:56:31.221Z,940.33
2018-07-17T01:57:39.300Z,940.34
2018-07-17T01:58:47.463Z,940.39
2018-07-17T01:59:55.426Z,940.37
2018-07-17T02:01:03.481Z,940.38
2018-07-17T02:02:11.547Z,940.37
2018-07-17T02:03:19.650Z,940.32
2018-07-17T02:04:27.669Z,940.36
2018-07-17T02:05:35.746Z,940.34
2018-07-17T02:06:43.812Z,940.36
2018-07-17T02:07:51.967Z,940.36
2018-07-17T02:08:59.950Z,940.35
2018-07-17T02:10:08.001Z,940.34
2018-07-17T02:11:16.054Z,940.37
2018-07-17T02:12:24.135Z,940.39
2018-07-17T02:13:32.183Z,940.41
2018-07-17T02:14:40.356Z,940.39
2018-07-17T02:15:48.320Z,940.39
2018-07-17T02:16:56.391Z,940.37
2018-07-17T02:18:04.550Z,940.39
2018-07-17T02:19:12.510Z,940.39
2018-07-17T02:20:20.575Z,940.42
2018-07-17T02:21:28.628Z,940.42
2018-07-17T02:22:36.696Z,940.42
2018-07-17T02:23:44.872Z,940.43
2018-07-17T02:24:52.859Z,940.45
2018-07-17T02:26:00.945Z,940.44
2018-07-17T02:27:08.937Z,940.44
2018-07-17T02:28:17.036Z,940.45
2018-07-17T02:29:25.200Z,940.44
2018-07-17T02:30:33.259Z,940.42
2018-07-17T02:31:41.239Z,940.41
2018-07-17T02:32:49.270Z,940.43
2018-07-17T02:33:57.463Z,940.41
2018-07-17T02:35:05.427Z,940.46
2018-07-17T02:36:13.469Z,940.43
2018-07-17T02:37:21.548Z,940.46
2018-07-17T02:38:29.616Z,940.47
2018-07-17T02:39:37.775Z,940.46
2018-07-17T02:40:45.749Z,940.49
2018-07-17T02:41:53.810Z,940.50
2018-07-17T02:43:01.887Z,940.47
2018-07-17T02:44:09.928Z,940.47
2018-07-17T02:45:18.108Z,940.46
2018-07-17T02:46:26.162Z,940.46
2018-07-17T02:47:34.132Z,940.49
2018-07-17T02:48:42.199Z,940.46
2018-07-17T02:49:50.264Z,940.47
2018-07-17T02:50:58.421Z,940.46
2018-07-17T02:52:06.388Z,940.49
2018-07-17T02:53:14.454Z,940.47
2018-07-17T02:54:22.503Z,940.48
2018-07-17T02:55:30.602Z,940.50
2018-07-17T02:56:38.742Z,940.52
2018-07-17T02:57:46.719Z,940.50
2018-07-17T02:58:54.774Z,940.53
2018-07-17T03:00:02.846Z,940.58
2018-07-17T03:01:10.909Z,940.61
2018-07-17T03:02:19.053Z,940.63
2018-07-17T03:03:27.030Z,940.63
2018-07-17T03:04:35.095Z,940.60
2018-07-17T03:05:43.152Z,940.62
2018-07-17T03:06:51.223Z,940.63
2018-07-17T03:07:59.301Z,940.63
2018-07-17T03:09:07.363Z,940.61
2018-07-17T03:10:15.416Z,940.56
2018-07-17T03:11:25.290Z,940.64
2018-07-17T03:12:33.448Z,940.60
2018-07-17T03:13:41.420Z,940.63
2018-07-17T03:14:49.712Z,940.62
2018-07-17T03:15:57.556Z,940.59
2018-07-17T03:17:05.612Z,940.63
2018-07-17T03:18:13.775Z,940.62
2018-07-17T03:19:21.748Z,940.65
2018-07-17T03:20:29.801Z,940.62
2018-07-17T03:21:37.867Z,940.64
2018-07-17T03:22:46.026Z,940.66
2018-07-17T03:23:54.001Z,940.66
2018-07-17T03:25:02.064Z,940.62
2018-07-17T03:26:10.122Z,940.66
2018-07-17T03:27:18.190Z,940.69
2018-07-17T03:28:26.704Z,940.72
2018-07-17T03:29:34.317Z,940.68
2018-07-17T03:30:42.385Z,940.72
2018-07-17T03:31:50.449Z,940.73
2018-07-17T03:32:58.542Z,940.76
2018-07-17T03:34:06.681Z,940.75
2018-07-17T03:35:14.640Z,940.77
2018-07-17T03:36:22.744Z,940.79
2018-07-17T03:37:30.770Z,940.79
2018-07-17T03:38:38.822Z,940.78
2018-07-17T03:39:46.988Z,940.79
2018-07-17T03:40:54.963Z,940.80
2018-07-17T03:42:03.026Z,940.82
2018-07-17T03:43:11.085Z,940.81
2018-07-17T03:44:19.140Z,940.84
2018-07-17T03:45:27.304Z,940.85
2018-07-17T03:46:35.282Z,940.84
2018-07-17T03:47:43.452Z,940.87
2018-07-17T03:48:51.419Z,940.86
2018-07-17T03:49:59.488Z,940.86
2018-07-17T03:51:07.581Z,940.92
2018-07-17T03:52:15.618Z,940.87
2018-07-17T03:53:23.667Z,940.91
2018-07-17T03:54:31.745Z,940.95
2018-07-17T03:55:39.905Z,940.95
2018-07-17T03:56:47.868Z,940.97
2018-07-17T03:57:55.931Z,940.99
2018-07-17T03:59:04.000Z,940.99
2018-07-17T04:00:12.063Z,940.99
2018-07-17T04:01:20.233Z,940.99
2018-07-17T04:02:28.206Z,941.00
2018-07-17T04:03:37.411Z,941.01
2018-07-17T04:04:44.326Z,940.98
2018-07-17T04:05:53.120Z,940.98
2018-07-17T04:07:00.464Z,941.00
2018-07-17T04:08:08.505Z,941.01
2018-07-17T04:09:16.581Z,941.08
2018-07-17T04:10:24.651Z,941.08
2018-07-17T04:11:32.760Z,941.11
2018-07-17T04:12:40.766Z,941.14
2018-07-17T04:13:48.817Z,941.14
2018-07-17T04:14:56.901Z,941.17
2018-07-17T04:16:05.076Z,941.17
2018-07-17T04:17:13.038Z,941.22
2018-07-17T04:18:21.095Z,941.22
2018-07-17T04:19:29.252Z,941.19
2018-07-17T04:20:37.956Z,941.22
2018-07-17T04:21:45.387Z,941.21
2018-07-17T04:22:53.367Z,941.24
2018-07-17T04:24:01.434Z,941.22
2018-07-17T04:25:09.480Z,941.25
2018-07-17T04:26:17.714Z,941.23
2018-07-17T04:27:25.618Z,941.21
2018-07-17T04:28:33.686Z,941.27
2018-07-17T04:29:41.805Z,941.25
2018-07-17T04:30:49.838Z,941.29
2018-07-17T04:31:58.124Z,941.29
2018-07-17T04:33:05.950Z,941.36
2018-07-17T04:34:14.021Z,941.32
2018-07-17T04:35:22.175Z,941.35
2018-07-17T04:36:30.135Z,941.37
2018-07-17T04:37:38.237Z,941.34
2018-07-17T04:38:46.282Z,941.38
2018-07-17T04:39:54.441Z,941.36
2018-07-17T04:41:02.404Z,941.38
2018-07-17T04:42:10.459Z,941.40
2018-07-17T04:43:18.610Z,941.39
2018-07-17T04:44:26.682Z,941.44
2018-07-17T04:45:34.658Z,941.46
2018-07-17T04:46:42.727Z,941.42
2018-07-17T04:47:50.885Z,941.41
2018-07-17T04:48:58.823Z,941.44
2018-07-17T07:05:25.710Z,942.20
2018-07-17T07:06:33.961Z,942.21
2018-07-17T07:07:41.940Z,942.40
2018-07-17T07:08:49.919Z,942.52
2018-07-17T07:09:58.006Z,942.35
2018-07-17T07:11:06.172Z,942.35
2018-07-17T07:12:14.131Z,942.30
2018-07-17T07:13:22.289Z,942.24
2018-07-17T07:14:30.465Z,942.38
2018-07-17T07:15:38.559Z,942.54
2018-07-17T07:16:47.101Z,942.56
2018-07-17T07:17:55.683Z,942.70
2018-07-17T07:19:02.840Z,942.80
2018-07-17T07:20:10.934Z,942.60
2018-07-17T07:21:20.200Z,942.59
2018-07-17T07:22:28.260Z,942.56
2018-07-17T07:23:36.323Z,942.58
2018-07-17T07:24:44.309Z,942.68
2018-07-17T07:25:52.463Z,942.88
2018-07-17T07:27:00.493Z,942.84
2018-07-17T07:28:08.717Z,942.80
2018-07-17T07:29:16.809Z,942.77
2018-07-17T07:30:24.866Z,942.72
2018-07-17T07:32:47.096Z,942.81
2018-07-17T07:33:52.056Z,943.02
2018-07-17T07:35:00.977Z,942.88
2018-07-17T07:36:09.065Z,942.69
2018-07-17T07:37:17.241Z,943.28
2018-07-17T07:38:25.205Z,943.63
2018-07-17T07:39:33.279Z,943.63
2018-07-17T07:40:41.364Z,943.83
2018-07-17T07:41:51.240Z,943.87
2018-07-17T07:42:59.567Z,943.91
2018-07-17T07:44:07.594Z,943.99
2018-07-17T07:45:15.661Z,944.09
2018-07-17T07:46:25.420Z,944.01
2018-07-17T07:47:33.557Z,943.99
2018-07-17T07:48:41.745Z,943.95
2018-07-17T07:49:49.573Z,943.98
2018-07-17T07:50:57.657Z,944.07
2018-07-17T07:52:06.004Z,943.81
2018-07-17T07:53:13.847Z,944.09
2018-07-17T07:54:21.878Z,944.37
2018-07-17T07:55:29.999Z,944.49
2018-07-17T07:56:38.052Z,944.67
2018-07-17T07:57:46.225Z,944.84
2018-07-17T07:58:54.455Z,944.97
2018-07-17T08:00:02.277Z,944.96
2018-07-17T08:01:10.370Z,945.05
2018-07-17T08:02:18.435Z,945.26
2018-07-17T08:03:26.718Z,945.32
2018-07-17T08:04:34.599Z,945.56
2018-07-17T08:05:42.684Z,945.56
2018-07-17T08:06:50.761Z,945.39
2018-07-17T08:07:59.192Z,945.41
2018-07-17T08:09:06.929Z,946.26
2018-07-17T08:10:15.007Z,946.74
2018-07-17T08:11:23.080Z,946.64
2018-07-17T08:12:31.175Z,946.59
2018-07-17T08:13:39.263Z,946.90
2018-07-17T08:14:47.427Z,946.99
2018-07-17T08:15:55.398Z,946.73
2018-07-17T08:17:03.494Z,947.07
2018-07-17T08:18:11.735Z,947.38
2018-07-17T08:19:19.900Z,947.50
2018-07-17T08:20:27.973Z,948.41
2018-07-17T08:21:35.815Z,947.26
2018-07-17T08:22:43.889Z,948.89
2018-07-17T08:23:52.019Z,948.79
2018-07-17T08:25:00.049Z,949.23
2018-07-17T08:26:08.509Z,948.78
2018-07-17T08:27:16.608Z,947.99
2018-07-17T08:28:24.786Z,948.00
2018-07-17T08:29:32.778Z,947.38
2018-07-17T08:30:41.285Z,946.79
2018-07-17T08:31:48.925Z,946.49
2018-07-17T08:32:57.011Z,946.96
2018-07-17T08:34:05.190Z,946.56
2018-07-17T08:35:13.429Z,946.33
2018-07-17T08:36:21.520Z,946.60
2018-07-17T08:37:29.552Z,946.97
2018-07-17T08:38:37.882Z,946.86
2018-07-17T08:39:45.863Z,947.13
2018-07-17T08:40:53.790Z,947.99
2018-07-17T08:42:01.867Z,948.02
2018-07-17T08:43:10.279Z,946.92
2018-07-17T08:44:18.023Z,945.17
2018-07-17T08:45:26.146Z,944.31
2018-07-17T08:46:34.299Z,944.55
2018-07-17T08:47:42.291Z,944.57
2018-07-17T08:48:50.434Z,945.37
2018-07-17T08:49:58.513Z,946.47
2018-07-17T08:51:07.536Z,947.07
2018-07-17T08:52:14.808Z,947.69
2018-07-17T08:53:23.144Z,948.53
2018-07-17T08:54:31.004Z,948.11
2018-07-17T08:55:39.078Z,948.09
2018-07-17T08:56:47.380Z,947.95
2018-07-17T08:57:55.226Z,948.62
2018-07-17T08:59:03.298Z,948.16
2018-07-17T09:00:11.411Z,947.81
2018-07-17T09:01:19.475Z,947.23
2018-07-17T09:02:28.207Z,946.72
2018-07-17T09:03:35.708Z,946.21
2018-07-17T09:04:43.790Z,946.72
2018-07-17T09:05:52.083Z,946.90
2018-07-17T09:07:00.008Z,946.64
2018-07-17T09:08:08.196Z,946.29
2018-07-17T09:09:16.235Z,946.20
2018-07-17T09:10:24.344Z,945.93
2018-07-17T09:11:32.402Z,946.04
2018-07-17T09:12:40.877Z,945.98
2018-07-17T09:13:48.548Z,945.87
2018-07-17T09:14:56.650Z,945.45
2018-07-17T09:16:04.739Z,945.46
2018-07-17T09:17:12.914Z,944.67
2018-07-17T09:18:20.905Z,943.71
2018-07-17T09:19:28.943Z,944.28
2018-07-17T09:20:37.137Z,944.67
2018-07-17T09:21:45.145Z,945.09
2018-07-17T09:22:53.330Z,945.58
2018-07-17T09:24:01.304Z,945.37
2018-07-17T09:25:09.368Z,944.88
2018-07-17T09:26:17.485Z,945.56
2018-07-17T09:27:25.874Z,944.77
2018-07-17T09:28:33.637Z,943.63
2018-07-17T09:29:41.721Z,943.31
2018-07-17T09:30:49.845Z,943.30
2018-07-17T09:31:57.970Z,943.21
2018-07-17T09:33:06.105Z,943.19
2018-07-17T09:34:14.043Z,943.16
2018-07-17T09:35:22.119Z,943.17
2018-07-17T09:36:30.194Z,943.17
2018-07-17T09:37:38.388Z,943.12
2018-07-17T09:38:46.572Z,943.11
2018-07-17T09:39:54.666Z,943.07
2018-07-17T09:41:02.750Z,943.10
2018-07-17T09:42:10.837Z,943.02
2018-07-17T09:43:19.241Z,943.01
2018-07-17T09:44:27.279Z,943.05
2018-07-17T09:45:35.260Z,943.01
2018-07-17T09:46:43.593Z,943.00
2018-07-17T09:47:52.570Z,942.99
2018-07-17T09:48:59.472Z,943.00
2018-07-17T09:50:07.812Z,943.00
2018-07-17T09:51:15.630Z,942.97
2018-07-17T09:52:23.730Z,942.98
2018-07-17T09:53:37.054Z,942.96
2018-07-17T09:54:39.959Z,942.94
2018-07-17T09:55:47.973Z,942.93
2018-07-17T09:56:56.051Z,942.92
2018-07-17T09:58:04.415Z,942.87
2018-07-17T09:59:12.255Z,942.91
2018-07-17T10:00:20.617Z,942.90
2018-07-17T10:01:28.381Z,942.89
2018-07-17T10:02:36.419Z,942.86
2018-07-17T10:03:44.607Z,942.78
2018-07-17T10:04:52.555Z,942.75
2018-07-17T10:06:00.913Z,942.80
2018-07-17T10:07:09.201Z,942.82
2018-07-17T10:08:17.111Z,942.83
2018-07-17T10:09:25.533Z,942.76
2018-07-17T10:10:33.183Z,942.72
2018-07-17T10:11:41.445Z,942.70
2018-07-17T10:12:49.516Z,942.69
2018-07-17T10:13:57.619Z,942.60
2018-07-17T10:15:05.630Z,942.66
2018-07-17T10:16:13.747Z,942.62
2018-07-17T10:17:21.795Z,942.56
2018-07-17T10:18:30.248Z,942.52
2018-07-17T10:19:37.976Z,942.56
2018-07-17T10:20:46.087Z,942.50
2018-07-17T10:21:54.786Z,942.45
2018-07-17T10:23:02.407Z,942.44
2018-07-17T10:24:10.561Z,942.47
2018-07-17T10:25:18.538Z,942.50
2018-07-17T10:26:26.623Z,942.56
2018-07-17T10:27:34.702Z,942.57
2018-07-17T10:28:42.803Z,942.51
2018-07-17T10:29:50.832Z,942.53
2018-07-17T10:30:58.945Z,942.52
2018-07-17T10:32:07.076Z,942.49
2018-07-17T10:33:15.205Z,942.48
2018-07-17T10:34:23.227Z,942.50
2018-07-17T10:35:31.243Z,942.51
2018-07-17T10:36:39.338Z,942.50
2018-07-17T10:37:47.376Z,942.54
2018-07-17T10:38:55.473Z,942.50
2018-07-17T10:40:03.907Z,942.53
2018-07-17T10:41:11.599Z,942.44
2018-07-17T10:42:19.623Z,942.45
2018-07-17T10:43:28.067Z,942.48
2018-07-17T10:44:36.082Z,942.46
2018-07-17T10:45:43.867Z,942.50
2018-07-17T10:46:51.968Z,942.44
2018-07-17T10:47:59.998Z,942.44
2018-07-17T10:49:08.119Z,942.43
2018-07-17T10:50:16.444Z,942.41
2018-07-17T10:51:24.349Z,942.38
2018-07-17T10:52:32.858Z,942.31
2018-07-17T10:53:40.529Z,942.36
2018-07-17T10:54:48.448Z,942.35
2018-07-17T10:55:57.078Z,942.31
2018-07-17T10:57:04.801Z,942.31
2018-07-17T10:58:12.939Z,942.29
2018-07-17T10:59:26.249Z,942.24
2018-07-17T11:00:29.023Z,942.25
2018-07-17T11:01:38.157Z,942.23
2018-07-17T11:02:45.479Z,942.22
2018-07-17T11:03:54.281Z,942.20
2018-07-17T11:05:01.449Z,942.15
2018-07-17T11:06:09.403Z,942.11
2018-07-17T11:07:17.690Z,942.11
2018-07-17T11:08:25.860Z,942.15
2018-07-17T11:09:34.966Z,942.19
2018-07-17T11:10:42.161Z,942.16
2018-07-17T11:11:50.180Z,942.20
2018-07-17T11:12:59.272Z,942.19
2018-07-17T11:14:06.437Z,942.22
2018-07-17T11:15:14.506Z,942.24
2018-07-17T11:16:22.516Z,942.18
2018-07-17T11:17:30.575Z,942.17
2018-07-17T11:18:38.590Z,942.17
2018-07-17T11:19:46.789Z,942.20
2018-07-17T11:20:54.791Z,942.21
2018-07-17T11:22:02.858Z,942.22
2018-07-17T11:23:10.909Z,942.22
2018-07-17T11:24:19.209Z,942.18
2018-07-17T11:25:27.715Z,942.17
2018-07-17T11:26:35.380Z,942.26
2018-07-17T11:27:43.670Z,942.22
2018-07-17T11:28:51.535Z,942.27
2018-07-17T11:29:59.653Z,942.23
2018-07-17T11:31:07.685Z,942.32
2018-07-17T11:32:15.806Z,942.30
2018-07-17T11:33:23.787Z,942.30
2018-07-17T11:34:32.190Z,942.29
2018-07-17T11:35:40.173Z,942.26
2018-07-17T11:36:48.252Z,942.22
2018-07-17T11:37:56.290Z,942.22
2018-07-17T11:39:04.618Z,942.22
2018-07-17T11:40:12.507Z,942.26
2018-07-17T11:41:20.644Z,942.31
2018-07-17T11:42:28.591Z,942.27
2018-07-17T11:43:36.688Z,942.24
2018-07-17T11:44:44.788Z,942.28
2018-07-17T11:45:52.824Z,942.39
2018-07-17T11:47:00.909Z,942.46
2018-07-17T11:48:08.990Z,942.49
2018-07-17T11:49:17.048Z,942.54
2018-07-17T11:50:25.313Z,942.52
2018-07-17T11:51:33.212Z,942.60
2018-07-17T11:52:41.355Z,942.58
2018-07-17T11:53:49.358Z,942.59
2018-07-17T11:54:57.519Z,942.61
2018-07-17T11:56:05.518Z,942.55
2018-07-17T11:57:13.631Z,942.60
2018-07-17T11:58:21.746Z,942.56
2018-07-17T11:59:29.832Z,942.68
2018-07-17T12:00:37.872Z,942.63
2018-07-17T12:01:45.885Z,942.59
2018-07-17T12:02:54.140Z,942.70
2018-07-17T12:04:02.228Z,942.73
2018-07-17T12:05:10.366Z,942.67
2018-07-17T12:06:18.530Z,942.66
2018-07-17T12:07:26.411Z,942.69
2018-07-17T12:08:34.510Z,942.73
2018-07-17T12:09:42.589Z,942.67
2018-07-17T12:10:51.172Z,942.67
2018-07-17T12:11:58.800Z,942.68
2018-07-17T12:13:06.971Z,942.68
2018-07-17T12:14:15.036Z,942.76
2018-07-17T12:15:23.229Z,942.77
2018-07-17T12:16:31.103Z,942.84
2018-07-17T12:17:39.044Z,942.84
2018-07-17T12:18:47.180Z,942.87
2018-07-17T12:19:55.367Z,942.91
2018-07-17T12:21:03.754Z,942.91
2018-07-17T12:22:11.707Z,942.90
2018-07-17T12:23:19.662Z,942.85
2018-07-17T12:24:27.800Z,942.90
2018-07-17T12:25:35.822Z,942.88
2018-07-17T12:26:44.093Z,942.89
2018-07-17T12:27:52.351Z,942.88
2018-07-17T12:29:00.237Z,942.93
2018-07-17T12:30:08.286Z,942.98
2018-07-17T12:31:16.395Z,942.95
2018-07-17T12:32:24.476Z,942.97
2018-07-17T12:33:32.538Z,943.00
2018-07-17T12:34:40.632Z,943.02
2018-07-17T12:35:48.756Z,943.00
2018-07-17T12:36:56.845Z,943.08
2018-07-17T12:38:04.907Z,943.08
2018-07-17T12:39:12.935Z,943.05
2018-07-17T12:40:20.994Z,943.09
2018-07-17T12:41:29.058Z,943.06
2018-07-17T12:42:37.460Z,943.09
2018-07-17T12:43:45.179Z,943.08
2018-07-17T12:44:53.247Z,943.05
2018-07-17T12:46:01.373Z,943.04
2018-07-17T12:47:09.754Z,943.02
2018-07-17T12:48:17.759Z,942.98
2018-07-17T12:49:25.532Z,942.98
2018-07-17T12:50:33.838Z,943.03
2018-07-17T12:51:42.179Z,942.99
2018-07-17T12:52:49.972Z,942.97
2018-07-17T12:53:58.069Z,942.98
2018-07-17T12:55:06.207Z,942.95
2018-07-17T12:56:14.202Z,942.97
2018-07-17T12:57:23.124Z,942.95
2018-07-17T12:58:30.446Z,942.98
2018-07-17T12:59:38.489Z,943.01
2018-07-17T13:00:46.697Z,942.97
2018-07-17T13:01:54.866Z,942.99
2018-07-17T13:03:02.815Z,943.01
2018-07-17T13:04:11.242Z,942.97
2018-07-17T13:05:19.002Z,943.04
2018-07-17T13:06:27.075Z,942.99
2018-07-17T13:07:35.121Z,942.98
2018-07-17T13:08:43.448Z,942.96
2018-07-17T13:09:51.486Z,942.95
2018-07-17T13:10:59.322Z,942.90
2018-07-17T13:12:07.440Z,942.91
2018-07-17T13:13:15.497Z,942.89
2018-07-17T13:14:23.604Z,942.84
2018-07-17T13:15:32.724Z,942.83
2018-07-17T13:16:39.702Z,942.79
2018-07-17T13:17:47.789Z,942.78
2018-07-17T13:18:55.873Z,942.80
2018-07-17T13:20:03.925Z,942.78
2018-07-17T13:21:12.048Z,942.85
2018-07-17T13:23:31.075Z,942.86
2018-07-17T13:24:39.084Z,942.86
2018-07-17T13:25:47.102Z,942.83
2018-07-17T13:26:55.185Z,942.84
2018-07-17T13:28:03.255Z,942.84
2018-07-17T13:29:26.818Z,942.86
2018-07-17T13:30:19.545Z,942.94
2018-07-17T13:31:37.973Z,942.96
2018-07-17T13:32:35.774Z,943.00
2018-07-17T13:33:43.851Z,943.01
2018-07-17T13:34:53.126Z,942.95
2018-07-17T13:36:00.503Z,942.94
2018-07-17T13:37:08.343Z,942.98
2018-07-17T13:38:16.321Z,943.00
2018-07-17T13:39:24.458Z,943.06
2018-07-17T13:40:32.443Z,942.99
2018-07-17T13:41:40.514Z,942.98
2018-07-17T13:42:48.622Z,942.99
2018-07-17T13:43:56.747Z,942.99
2018-07-17T13:45:05.038Z,943.07
2018-07-17T13:46:12.883Z,943.08
2018-07-17T13:47:21.010Z,943.14
2018-07-17T13:48:28.971Z,943.19
2018-07-17T13:49:37.266Z,943.19
2018-07-17T13:50:45.134Z,943.20
2018-07-17T13:51:53.470Z,943.13
2018-07-17T13:53:01.583Z,943.14
2018-07-17T13:54:09.287Z,943.15
2018-07-17T13:55:17.401Z,943.26
2018-07-17T13:56:25.602Z,943.29
2018-07-17T13:57:38.791Z,943.34
2018-07-17T13:58:41.577Z,943.37
2018-07-17T13:59:49.662Z,943.28
2018-07-17T14:00:58.205Z,943.31
2018-07-17T14:02:05.942Z,943.32
2018-07-17T14:03:13.974Z,943.34
2018-07-17T14:04:21.952Z,943.29
2018-07-17T14:05:30.355Z,943.33
2018-07-17T14:06:38.082Z,943.31
2018-07-17T14:07:47.556Z,943.34
2018-07-17T14:08:54.212Z,943.33
2018-07-17T14:10:02.296Z,943.32
2018-07-17T14:11:11.365Z,943.31
2018-07-17T14:12:18.462Z,943.31
2018-07-17T14:13:26.607Z,943.29
2018-07-17T14:14:34.569Z,943.30
2018-07-17T14:15:42.656Z,943.35
2018-07-17T14:16:50.747Z,943.41
2018-07-17T14:17:58.863Z,943.40
2018-07-17T14:19:06.874Z,943.37
2018-07-17T14:20:14.954Z,943.36
2018-07-17T14:21:23.009Z,943.35
2018-07-17T14:22:31.166Z,943.37
2018-07-17T14:23:39.198Z,943.41
2018-07-17T14:24:47.219Z,943.40
2018-07-17T14:25:55.299Z,943.39
2018-07-17T14:27:04.400Z,943.38
2018-07-17T14:28:11.834Z,943.40
2018-07-17T14:29:19.528Z,943.42
2018-07-17T14:30:27.923Z,943.44
2018-07-17T14:31:35.664Z,943.40
2018-07-17T14:32:43.833Z,943.41
2018-07-17T14:33:52.169Z,943.48
2018-07-17T14:34:59.864Z,943.44
2018-07-17T14:36:07.931Z,943.46
2018-07-17T14:37:18.016Z,943.49
2018-07-17T14:38:26.192Z,943.51
2018-07-17T14:39:34.342Z,943.42
2018-07-17T14:40:42.225Z,943.40
2018-07-17T14:41:50.296Z,943.35
2018-07-17T14:42:58.355Z,943.35
2018-07-17T14:44:06.487Z,943.36
2018-07-17T14:45:14.611Z,943.42
2018-07-17T14:46:22.579Z,943.40
2018-07-17T14:47:30.757Z,943.40
2018-07-17T14:48:38.792Z,943.41
2018-07-17T14:49:46.787Z,943.44
2018-07-17T14:50:54.962Z,943.43
2018-07-17T14:52:03.397Z,943.39
2018-07-17T14:53:11.207Z,943.36
2018-07-17T14:54:19.542Z,943.35
2018-07-17T14:55:27.360Z,943.39
2018-07-17T14:56:35.498Z,943.32
2018-07-17T14:57:43.676Z,943.29
2018-07-17T14:58:51.751Z,943.29
2018-07-17T14:59:59.829Z,943.28
2018-07-17T15:01:07.885Z,943.24
2018-07-17T15:02:16.264Z,943.18
2018-07-17T15:03:24.485Z,943.14
2018-07-17T15:04:32.495Z,943.15
2018-07-17T15:05:40.570Z,943.12
2018-07-17T15:06:48.980Z,943.10
2018-07-17T15:07:56.855Z,943.09
2018-07-17T15:09:04.800Z,943.09
2018-07-17T15:10:12.895Z,943.14
2018-07-17T15:11:20.919Z,943.15
2018-07-17T15:12:29.112Z,943.19
2018-07-17T15:13:37.069Z,943.25
2018-07-17T15:14:45.139Z,943.29
2018-07-17T15:15:53.289Z,943.31
2018-07-17T15:17:01.284Z,943.28
2018-07-17T15:18:09.691Z,943.27
2018-07-17T15:19:17.413Z,943.26
2018-07-17T15:21:36.361Z,943.19
2018-07-17T15:22:44.535Z,943.16
2018-07-17T15:23:53.069Z,943.14
2018-07-17T15:25:00.957Z,943.09
2018-07-17T15:26:08.647Z,943.11
2018-07-17T15:27:16.728Z,943.09
2018-07-17T15:28:25.146Z,943.14
2018-07-17T15:29:34.938Z,943.13
2018-07-17T15:30:42.749Z,943.10
2018-07-17T15:31:51.159Z,943.05
2018-07-17T15:32:58.870Z,943.02
2018-07-17T15:34:07.311Z,943.01
2018-07-17T15:35:15.071Z,942.96
2018-07-17T15:36:23.231Z,942.97
2018-07-17T15:37:31.260Z,942.97
2018-07-17T15:38:39.216Z,942.93
2018-07-17T15:39:47.368Z,942.91
2018-07-17T15:40:55.941Z,942.87
2018-07-17T15:42:03.711Z,942.84
2018-07-17T15:43:11.759Z,942.81
2018-07-17T15:44:20.177Z,942.81
2018-07-17T15:45:28.049Z,942.73
2018-07-17T15:46:35.952Z,942.74
2018-07-17T15:47:44.241Z,942.74
2018-07-17T15:48:52.098Z,942.75
2018-07-17T15:50:00.249Z,942.74
2018-07-17T15:51:08.326Z,942.79
2018-07-17T15:52:16.415Z,942.79
2018-07-17T15:53:24.368Z,942.84
2018-07-17T15:54:32.460Z,942.85
2018-07-17T15:55:40.539Z,942.87
2018-07-17T15:56:48.948Z,942.82
2018-07-17T15:57:56.666Z,942.83
2018-07-17T15:59:04.736Z,942.82
2018-07-17T16:00:12.816Z,942.84
2018-07-17T16:01:20.880Z,942.83
2018-07-17T16:02:29.242Z,942.80
2018-07-17T16:03:37.043Z,942.81
2018-07-17T16:04:45.300Z,942.76
2018-07-17T16:05:53.474Z,942.80
2018-07-17T16:07:02.168Z,942.77
2018-07-17T16:08:10.615Z,942.74
2018-07-17T16:09:18.161Z,942.72
2018-07-17T16:10:26.957Z,942.74
2018-07-17T16:11:34.955Z,942.73
2018-07-17T16:12:42.768Z,942.72
2018-07-17T16:13:50.908Z,942.71
2018-07-17T16:14:58.915Z,942.67
2018-07-17T16:16:06.968Z,942.66
2018-07-17T16:17:14.287Z,942.66
2018-07-17T16:18:23.287Z,942.64
2018-07-17T16:21:10.862Z,942.65
2018-07-17T16:21:47.485Z,942.64
2018-07-17T16:22:54.656Z,942.64
2018-07-17T16:24:02.725Z,942.64
2018-07-17T16:25:10.931Z,942.60
2018-07-17T16:26:24.852Z,942.60
2018-07-17T16:27:28.182Z,942.58
2018-07-17T16:28:35.469Z,942.55
2018-07-17T16:29:43.771Z,942.55
2018-07-17T16:30:51.753Z,942.55